Current Weather

Encarnacion

Encarnacion, Paraguay (SGEN)

Report from: Saturday, February 24, 2024 6:00 PM -03
Current time: Saturday, February 24, 2024 10:47 PM -03

Nearby weather – Weather history – Daily summaries
Weather forecast

Temperature35.0°C (95.0°F)
Heat index37.7°C (99.9°F)
Dew point20.0°C (68.0°F)
Winds 6 kts (3.1 m/s, 6.9 mph) South (180°)
Visibility6.2 mi. (10 km)
Clouds Scattered clouds 2,700 ft. (823 m)
Altimeter29.91 in.Hg (1013 mB)
Relative humidity42 %
Density altitude2,594 ft. (791 m)
Flight conditions Visual Meteorological Conditions
Raw dataSGEN 242100Z 18006KT 9999 SCT027 35/20 Q1013
An error has occurred. This application may no longer respond until reloaded. Reload 🗙